Αρχική σελίδα
METAR-TAF:

METAR-TAF

Αεροδρόμια :

Σφαξ, Τυνησία

γεωγραφικό πλάτος: 34-43N, γεωγραφικό μήκος: 010-41E, υψόμετρο: 21 μ

Παρών καιρός

Η αναφορά έγινε 1 ώρα και 1 λεπτά πριν, στις 23:00 UTC
Άνεμος 5 kt από Β/BA, μεταβλητός μεταξύ Β και BA
Θερμοκρασία 28°C
Υγρασία 74%
Πίεση 1012 hPa

METAR: DTTX 222300Z AUTO 02005KT 350V050 NCD 28/23 Q1012

Χρόνος: 01:01 (00:01 UTC)

Πρόγνωση Καιρού

Η αναφορά έγινε 3 ώρες και 6 λεπτά πριν, στις 20:55 UTC
Η πρόγνωση ισχύει από τις 23 στις 00 UTC έως τις 23 στις 24 UTC
Άνεμος 10 kt από Β
Ορατότητα 10 χλμ και άνω
Δεν υπάρχουν νέφη με βάση κάτω από τα 1500 μ. και δεν υπάρχουν νέφη σωρειτομελανίτες.
Καθιστάμενος
από 23 στις 16 UTC έως τις 23 στις 18 UTC
Άνεμος 15 kt από Α/BA με ριπές μέχρι 27 kt

TAF: DTTX 222055Z 2300/2324 01010KT CAVOK BECMG 2316/2318 07015G27KT

Μετεωρολογικές αναφορές και προγνώσεις για περισσότερα από 4000 αεροδρόμια (δελτία METAR και TAF).

Οι διαθέσιμοι σταθμοί απεικονίζονται στο χάρτη με κίτρινες και κόκκινες κουκκίδες.

Μετακινήστε το ποντίκι πάνω από τις κουκκίδες για να δείτε το όνομα του σταθμού.

Στη συνέχεια, κάντε κλικ για να δείτε τις μετεωρολογικές αναφορές και τις προγνώσεις καιρού.

Για να αλλάξετε το χάρτη: κάντε κλικ στα πράσινα κουμπιά με τον μαύρο σταυρό για να ζουμάρετε, στο πράσινο κουμπί με την παύλα για να αφαιρέσετε το ζουμ ή στα πράσινα βέλη για να αντιπαραβάλλετε χάρτες.


METAR-TAF: